createdAt,value
2023-04-04T00:00:31.235Z,54.16
2023-04-04T00:02:58.307Z,55.10
2023-04-04T00:05:25.318Z,55.39
2023-04-04T00:07:52.464Z,54.79
2023-04-04T00:10:19.440Z,54.90
2023-04-04T00:12:46.680Z,54.31
2023-04-04T00:15:13.759Z,51.68
2023-04-04T00:17:40.779Z,53.44
2023-04-04T00:20:08.134Z,54.12
2023-04-04T00:22:35.073Z,54.04
2023-04-04T00:25:04.724Z,53.10
2023-04-04T00:27:31.867Z,53.58
2023-04-04T00:29:58.926Z,53.71
2023-04-04T00:32:26.262Z,55.03
2023-04-04T00:34:53.991Z,54.13
2023-04-04T00:37:21.849Z,52.60
2023-04-04T00:39:50.186Z,51.55
2023-04-04T00:42:18.193Z,50.32
2023-04-04T00:44:45.432Z,49.07
2023-04-04T00:47:13.106Z,49.12
2023-04-04T00:49:40.288Z,47.07
2023-04-04T00:52:08.181Z,46.04
2023-04-04T00:54:35.815Z,45.89
2023-04-04T00:57:03.723Z,45.21
2023-04-04T00:59:31.289Z,44.75
2023-04-04T01:01:58.522Z,44.88
2023-04-04T01:04:25.778Z,44.03
2023-04-04T01:06:52.917Z,44.03
2023-04-04T01:09:19.908Z,43.80
2023-04-04T01:11:46.942Z,43.58
2023-04-04T01:14:14.171Z,43.05
2023-04-04T01:16:41.546Z,43.31
2023-04-04T01:19:09.797Z,42.97
2023-04-04T01:21:36.991Z,43.39
2023-04-04T01:24:04.715Z,43.45
2023-04-04T01:26:43.382Z,43.01
2023-04-04T01:29:10.594Z,43.29
2023-04-04T01:31:42.368Z,43.50
2023-04-04T01:34:13.231Z,43.38
2023-04-04T01:36:49.431Z,43.80
2023-04-04T01:39:20.535Z,43.41
2023-04-04T01:41:48.351Z,42.99
2023-04-04T01:44:19.154Z,44.36
2023-04-04T01:46:47.089Z,45.01
2023-04-04T01:49:14.150Z,43.42
2023-04-04T01:51:41.316Z,45.38
2023-04-04T01:54:09.479Z,45.46
2023-04-04T01:56:36.451Z,44.45
2023-04-04T01:59:03.928Z,43.48
2023-04-04T02:01:31.151Z,43.05
2023-04-04T02:03:58.322Z,43.72
2023-04-04T02:06:25.398Z,43.99
2023-04-04T02:08:53.089Z,44.79
2023-04-04T02:11:23.079Z,43.84
2023-04-04T02:13:50.785Z,43.13
2023-04-04T02:16:20.488Z,42.72
2023-04-04T02:18:47.660Z,41.87
2023-04-04T02:21:17.360Z,43.55
2023-04-04T02:23:44.361Z,43.95
2023-04-04T02:26:11.369Z,44.68
2023-04-04T02:28:38.603Z,44.33
2023-04-04T02:31:07.361Z,44.25
2023-04-04T02:33:34.456Z,44.12
2023-04-04T02:36:04.740Z,42.75
2023-04-04T02:38:31.949Z,42.97
2023-04-04T02:41:00.796Z,42.27
2023-04-04T02:43:27.796Z,42.21
2023-04-04T02:45:55.279Z,42.97
2023-04-04T02:48:27.542Z,42.96
2023-04-04T02:50:59.752Z,42.70
2023-04-04T02:53:27.903Z,42.76
2023-04-04T02:55:58.969Z,42.07
2023-04-04T02:58:26.084Z,43.27
2023-04-04T03:00:56.360Z,43.24
2023-04-04T03:03:28.377Z,43.11
2023-04-04T03:05:56.078Z,42.00
2023-04-04T03:08:23.258Z,43.17
2023-04-04T03:10:50.673Z,42.84
2023-04-04T03:13:17.622Z,42.84
2023-04-04T03:15:47.286Z,42.95
2023-04-04T03:18:15.746Z,43.93
2023-04-04T03:20:43.017Z,43.95
2023-04-04T03:23:10.047Z,44.49
2023-04-04T03:25:37.301Z,44.69
2023-04-04T03:28:10.370Z,43.77
2023-04-04T03:30:38.146Z,43.32
2023-04-04T03:33:08.721Z,43.28
2023-04-04T03:35:39.764Z,43.02
2023-04-04T03:38:07.697Z,42.67
2023-04-04T03:40:34.781Z,44.04
2023-04-04T03:43:08.640Z,44.23
2023-04-04T03:45:38.633Z,43.73
2023-04-04T03:48:06.470Z,44.31
2023-04-04T03:50:33.621Z,44.11
2023-04-04T03:53:00.726Z,44.56
2023-04-04T03:55:27.781Z,43.72
2023-04-04T03:57:59.116Z,44.42
2023-04-04T04:00:26.364Z,43.75
2023-04-04T04:02:53.628Z,43.59
2023-04-04T04:05:20.875Z,43.96
2023-04-04T04:07:47.894Z,44.08
2023-04-04T04:10:14.955Z,44.62
2023-04-04T04:12:42.016Z,44.24
2023-04-04T04:15:09.884Z,44.96
2023-04-04T04:17:42.261Z,43.96
2023-04-04T04:20:11.871Z,43.37
2023-04-04T04:22:49.677Z,43.49
2023-04-04T04:25:17.950Z,43.38
2023-04-04T04:27:56.954Z,43.79
2023-04-04T04:30:25.172Z,44.10
2023-04-04T04:32:52.412Z,44.29
2023-04-04T04:35:23.381Z,44.15
2023-04-04T04:37:50.943Z,43.61
2023-04-04T04:40:21.189Z,44.13
2023-04-04T04:42:56.036Z,45.18
2023-04-04T04:45:24.353Z,44.15
2023-04-04T04:48:02.497Z,44.80
2023-04-04T04:50:30.814Z,44.09
2023-04-04T04:52:58.589Z,44.80
2023-04-04T04:55:25.935Z,44.26
2023-04-04T04:58:04.475Z,43.63
2023-04-04T05:00:33.092Z,44.26
2023-04-04T05:03:03.234Z,44.93
2023-04-04T05:05:36.993Z,44.26
2023-04-04T05:08:08.403Z,44.14
2023-04-04T05:10:39.782Z,44.68
2023-04-04T05:13:08.302Z,43.58
2023-04-04T05:15:42.146Z,43.85
2023-04-04T05:18:10.489Z,44.19
2023-04-04T05:20:39.028Z,44.93
2023-04-04T05:23:07.919Z,43.32
2023-04-04T05:25:39.391Z,43.97
2023-04-04T05:28:06.416Z,44.48
2023-04-04T05:30:34.338Z,44.00
2023-04-04T05:33:11.870Z,44.30
2023-04-04T05:35:43.539Z,44.13
2023-04-04T05:38:11.634Z,43.61
2023-04-04T05:40:39.840Z,44.49
2023-04-04T05:43:13.424Z,44.29
2023-04-04T05:45:56.825Z,43.97
2023-04-04T05:48:25.156Z,43.77
2023-04-04T05:50:53.700Z,43.40
2023-04-04T05:53:32.092Z,42.85
2023-04-04T05:56:01.162Z,44.01
2023-04-04T05:58:32.546Z,44.34
2023-04-04T06:01:01.933Z,43.19
2023-04-04T06:03:30.056Z,43.92
2023-04-04T06:05:59.528Z,45.09
2023-04-04T06:08:27.228Z,44.58
2023-04-04T06:10:56.159Z,46.22
2023-04-04T06:13:23.404Z,45.63
2023-04-04T06:15:55.604Z,46.24
2023-04-04T06:18:23.030Z,47.02
2023-04-04T06:20:50.222Z,47.30
2023-04-04T06:23:17.776Z,46.98
2023-04-04T06:25:47.848Z,46.14
2023-04-04T06:28:18.513Z,44.74
2023-04-04T06:30:49.602Z,44.84
2023-04-04T06:33:26.465Z,44.08
2023-04-04T06:35:54.635Z,44.00
2023-04-04T06:38:23.791Z,44.92
2023-04-04T06:40:52.169Z,45.89
2023-04-04T06:43:21.700Z,45.42
2023-04-04T06:45:50.256Z,45.27
2023-04-04T06:48:20.138Z,45.62
2023-04-04T06:50:47.644Z,46.96
2023-04-04T06:53:16.836Z,46.21
2023-04-04T06:55:44.792Z,46.31
2023-04-04T06:58:12.187Z,45.99
2023-04-04T07:00:39.514Z,45.01
2023-04-04T07:03:06.969Z,43.75
2023-04-04T07:05:34.096Z,42.56
2023-04-04T07:08:01.653Z,45.14
2023-04-04T07:10:30.100Z,44.29
2023-04-04T07:12:57.266Z,45.50
2023-04-04T07:15:24.777Z,46.65
2023-04-04T07:17:52.304Z,44.67
2023-04-04T07:20:19.486Z,44.26
2023-04-04T07:22:46.779Z,46.41
2023-04-04T07:25:16.035Z,44.58
2023-04-04T07:27:43.071Z,44.57
2023-04-04T07:30:10.879Z,44.04
2023-04-04T07:32:40.762Z,42.64
2023-04-04T07:35:08.244Z,43.18
2023-04-04T07:37:38.920Z,43.56
2023-04-04T07:40:09.841Z,43.68
2023-04-04T07:42:38.218Z,41.38
2023-04-04T07:45:05.812Z,39.93
2023-04-04T07:47:33.369Z,37.87
2023-04-04T07:50:02.524Z,35.30
2023-04-04T07:52:30.020Z,34.12
2023-04-04T07:54:57.197Z,33.60
2023-04-04T07:57:24.235Z,35.49
2023-04-04T07:59:51.791Z,36.29
2023-04-04T08:02:18.876Z,36.10
2023-04-04T08:04:46.175Z,37.19
2023-04-04T08:07:13.607Z,37.88
2023-04-04T08:09:40.655Z,37.82
2023-04-04T08:12:08.016Z,38.08
2023-04-04T08:14:35.098Z,35.17
2023-04-04T08:17:02.693Z,35.96
2023-04-04T08:19:29.679Z,36.27
2023-04-04T08:21:56.933Z,36.91
2023-04-04T08:24:26.435Z,36.48
2023-04-04T08:27:04.656Z,38.99
2023-04-04T08:29:33.545Z,38.72
2023-04-04T08:32:00.904Z,39.39
2023-04-04T08:34:29.322Z,38.58
2023-04-04T08:36:56.965Z,38.22
2023-04-04T08:39:24.390Z,37.55
2023-04-04T08:41:57.778Z,37.39
2023-04-04T08:44:24.830Z,38.11
2023-04-04T08:46:52.027Z,38.87
2023-04-04T08:49:21.707Z,39.12
2023-04-04T08:51:48.713Z,39.73
2023-04-04T08:54:16.806Z,38.23
2023-04-04T08:56:43.924Z,37.31
2023-04-04T08:59:16.048Z,37.94
2023-04-04T09:01:43.617Z,38.06
2023-04-04T09:04:12.160Z,37.00
2023-04-04T09:06:39.327Z,38.01
2023-04-04T09:09:06.886Z,37.39
2023-04-04T09:11:34.031Z,37.96
2023-04-04T09:14:02.714Z,35.78
2023-04-04T09:16:29.787Z,34.75
2023-04-04T09:18:56.986Z,33.16
2023-04-04T09:21:24.026Z,34.56
2023-04-04T09:24:03.820Z,34.56
2023-04-04T09:26:48.096Z,38.59
2023-04-04T09:29:18.800Z,37.73
2023-04-04T09:31:46.977Z,39.73
2023-04-04T09:34:14.929Z,38.91
2023-04-04T09:36:42.184Z,40.21
2023-04-04T09:39:09.225Z,39.38
2023-04-04T09:41:41.074Z,39.21
2023-04-04T09:44:11.805Z,38.99
2023-04-04T09:46:42.235Z,39.81
2023-04-04T09:49:19.741Z,39.34
2023-04-04T09:51:55.150Z,38.68
2023-04-04T09:54:29.550Z,39.31
2023-04-04T09:56:57.585Z,38.79
2023-04-04T09:59:24.854Z,38.60
2023-04-04T10:01:53.653Z,38.74
2023-04-04T10:04:20.857Z,37.60
2023-04-04T10:06:48.301Z,38.83
2023-04-04T10:09:16.420Z,37.62
2023-04-04T10:11:44.112Z,35.74
2023-04-04T10:14:11.779Z,37.57
2023-04-04T10:16:39.742Z,37.87
2023-04-04T10:19:11.197Z,37.84
2023-04-04T10:21:38.147Z,37.74
2023-04-04T10:24:09.483Z,37.53
2023-04-04T10:26:37.255Z,36.46
2023-04-04T10:29:06.257Z,38.40
2023-04-04T10:31:34.331Z,38.38
2023-04-04T10:34:12.927Z,39.25
2023-04-04T10:36:53.924Z,37.81
2023-04-04T10:39:26.773Z,37.68
2023-04-04T10:41:53.934Z,38.46
2023-04-04T10:44:25.134Z,38.81
2023-04-04T10:46:54.317Z,38.34
2023-04-04T10:49:21.965Z,38.45
2023-04-04T10:51:55.915Z,38.02
2023-04-04T10:54:26.073Z,38.59
2023-04-04T10:56:53.420Z,38.52
2023-04-04T10:59:22.418Z,36.80
2023-04-04T11:01:50.829Z,36.90
2023-04-04T11:04:20.707Z,37.32
2023-04-04T11:07:07.190Z,38.16
2023-04-04T11:09:49.815Z,36.34
2023-04-04T11:12:20.843Z,33.65
2023-04-04T11:14:58.223Z,34.07
2023-04-04T11:17:41.492Z,32.56
2023-04-04T11:20:14.918Z,30.88
2023-04-04T11:22:43.329Z,31.69
2023-04-04T11:25:30.798Z,33.41
2023-04-04T11:28:01.302Z,33.70
2023-04-04T11:30:28.412Z,31.61
2023-04-04T11:33:07.116Z,29.90
2023-04-04T11:35:38.786Z,31.79
2023-04-04T11:38:12.684Z,31.58
2023-04-04T11:40:41.670Z,31.32
2023-04-04T11:43:12.341Z,32.24
2023-04-04T11:45:46.062Z,33.70
2023-04-04T11:48:15.317Z,31.92
2023-04-04T11:50:45.410Z,32.29
2023-04-04T11:53:13.326Z,31.94
2023-04-04T11:55:42.960Z,33.23
2023-04-04T11:58:14.366Z,31.82
2023-04-04T12:00:41.773Z,34.45
2023-04-04T12:03:11.712Z,34.10
2023-04-04T12:05:40.443Z,35.16
2023-04-04T12:08:08.759Z,37.24
2023-04-04T12:10:36.441Z,36.38
2023-04-04T12:13:07.582Z,34.75
2023-04-04T12:15:36.139Z,34.97
2023-04-04T12:18:06.590Z,36.10
2023-04-04T12:20:34.184Z,36.70
2023-04-04T12:23:01.206Z,37.10
2023-04-04T12:25:29.822Z,36.80
2023-04-04T12:27:57.226Z,34.99
2023-04-04T12:30:24.853Z,35.11
2023-04-04T12:32:52.548Z,34.53
2023-04-04T12:35:20.270Z,35.60
2023-04-04T12:37:58.472Z,35.18
2023-04-04T12:40:29.673Z,34.76
2023-04-04T12:42:57.410Z,35.60
2023-04-04T12:45:26.816Z,37.42
2023-04-04T12:47:58.643Z,35.49
2023-04-04T12:50:28.672Z,35.04
2023-04-04T12:53:13.260Z,33.90
2023-04-04T12:55:47.684Z,34.36
2023-04-04T12:58:26.379Z,33.12
2023-04-04T13:00:54.544Z,32.83
2023-04-04T13:03:25.523Z,34.07
2023-04-04T13:05:52.995Z,35.23
2023-04-04T13:08:20.235Z,35.07
2023-04-04T13:11:02.277Z,33.41
2023-04-04T13:13:33.508Z,34.93
2023-04-04T13:16:00.462Z,34.83
2023-04-04T13:18:33.941Z,31.93
2023-04-04T13:21:01.257Z,30.40
2023-04-04T13:23:29.069Z,30.79
2023-04-04T13:25:58.523Z,31.91
2023-04-04T13:28:27.259Z,31.31
2023-04-04T13:30:54.584Z,30.52
2023-04-04T13:33:22.652Z,34.66
2023-04-04T13:35:50.034Z,35.36
2023-04-04T13:38:17.394Z,36.16
2023-04-04T13:40:44.994Z,35.49
2023-04-04T13:43:13.434Z,36.38
2023-04-04T13:45:40.702Z,36.31
2023-04-04T13:48:07.902Z,35.89
2023-04-04T13:50:36.432Z,33.93
2023-04-04T13:53:03.579Z,32.64
2023-04-04T13:55:30.776Z,32.16
2023-04-04T13:57:58.267Z,31.52
2023-04-04T14:00:25.766Z,31.87
2023-04-04T14:02:56.994Z,30.56
2023-04-04T14:05:24.637Z,28.63
2023-04-04T14:07:51.861Z,28.05
2023-04-04T14:10:19.067Z,28.58
2023-04-04T14:12:46.723Z,29.11
2023-04-04T14:15:14.283Z,28.24
2023-04-04T14:17:41.981Z,30.16
2023-04-04T14:20:09.348Z,31.06
2023-04-04T14:22:36.514Z,32.47
2023-04-04T14:25:04.836Z,33.14
2023-04-04T14:27:31.860Z,32.89
2023-04-04T14:29:59.308Z,34.74
2023-04-04T14:32:27.159Z,33.02
2023-04-04T14:34:54.206Z,31.95
2023-04-04T14:37:21.697Z,31.66
2023-04-04T14:39:49.092Z,30.73
2023-04-04T14:42:16.142Z,32.46
2023-04-04T14:44:43.261Z,33.95
2023-04-04T14:47:10.494Z,34.30
2023-04-04T14:49:37.804Z,34.96
2023-04-04T14:52:05.364Z,36.32
2023-04-04T14:54:32.620Z,35.77
2023-04-04T14:56:59.866Z,35.99
2023-04-04T14:59:27.031Z,35.29
2023-04-04T15:01:54.070Z,34.79
2023-04-04T15:04:21.302Z,33.93
2023-04-04T15:06:49.140Z,31.30
2023-04-04T15:09:17.246Z,30.08
2023-04-04T15:11:44.343Z,29.73
2023-04-04T15:14:11.328Z,29.53
2023-04-04T15:16:38.955Z,31.45
2023-04-04T15:19:06.075Z,31.99
2023-04-04T15:21:33.178Z,33.45
2023-04-04T15:24:00.917Z,34.86
2023-04-04T15:26:28.036Z,34.31
2023-04-04T15:28:55.275Z,35.42
2023-04-04T15:31:23.314Z,35.26
2023-04-04T15:33:50.522Z,35.31
2023-04-04T15:36:17.801Z,34.15
2023-04-04T15:38:44.858Z,33.08
2023-04-04T15:41:12.402Z,33.51
2023-04-04T15:43:39.432Z,33.88
2023-04-04T15:46:06.844Z,34.08
2023-04-04T15:48:34.742Z,32.42
2023-04-04T15:51:04.973Z,31.21
2023-04-04T15:53:32.205Z,29.82
2023-04-04T15:55:59.613Z,28.79
2023-04-04T15:58:26.703Z,28.35
2023-04-04T16:00:53.972Z,30.72
2023-04-04T16:03:21.682Z,30.35
2023-04-04T16:05:49.362Z,29.48
2023-04-04T16:08:16.508Z,27.79
2023-04-04T16:10:44.696Z,28.04
2023-04-04T16:13:13.721Z,28.26
2023-04-04T16:15:40.878Z,30.81
2023-04-04T16:18:08.963Z,31.04
2023-04-04T16:20:36.348Z,32.18
2023-04-04T16:23:03.444Z,31.82
2023-04-04T16:25:30.620Z,31.96
2023-04-04T16:27:57.805Z,30.62
2023-04-04T16:30:24.847Z,29.40
2023-04-04T16:32:52.745Z,29.87
2023-04-04T16:35:19.855Z,31.24
2023-04-04T16:37:47.821Z,32.26
2023-04-04T16:40:15.570Z,32.64
2023-04-04T16:42:42.727Z,31.45
2023-04-04T16:45:10.485Z,30.83
2023-04-04T16:47:37.725Z,31.77
2023-04-04T16:50:06.052Z,33.33
2023-04-04T16:52:33.617Z,32.97
2023-04-04T16:55:00.848Z,32.41
2023-04-04T16:57:28.058Z,32.02
2023-04-04T16:59:56.145Z,31.37
2023-04-04T17:02:23.849Z,32.12
2023-04-04T17:04:53.663Z,32.62
2023-04-04T17:07:21.275Z,33.91
2023-04-04T17:09:48.940Z,33.44
2023-04-04T17:12:17.744Z,32.63
2023-04-04T17:14:45.395Z,31.72
2023-04-04T17:17:12.470Z,32.82
2023-04-04T17:19:40.015Z,31.73
2023-04-04T17:22:07.249Z,31.59
2023-04-04T17:24:34.201Z,31.79
2023-04-04T17:27:01.635Z,31.09
2023-04-04T17:29:29.024Z,30.41
2023-04-04T17:31:56.357Z,29.94
2023-04-04T17:34:23.601Z,28.93
2023-04-04T17:36:52.973Z,29.52
2023-04-04T17:39:20.080Z,28.98
2023-04-04T17:41:49.987Z,30.34
2023-04-04T17:44:17.288Z,28.95
2023-04-04T17:46:45.161Z,28.11
2023-04-04T17:49:12.983Z,27.69
2023-04-04T17:51:40.418Z,27.89
2023-04-04T17:54:07.581Z,28.94
2023-04-04T17:56:37.676Z,29.42
2023-04-04T17:59:04.844Z,29.81
2023-04-04T18:01:33.560Z,29.19
2023-04-04T18:04:00.754Z,29.82
2023-04-04T18:06:30.373Z,30.58
2023-04-04T18:08:57.705Z,30.91
2023-04-04T18:11:24.749Z,32.17
2023-04-04T18:13:51.728Z,32.59
2023-04-04T18:16:18.865Z,32.28
2023-04-04T18:18:45.971Z,33.09
2023-04-04T18:21:13.065Z,33.20
2023-04-04T18:23:40.123Z,34.98
2023-04-04T18:26:07.306Z,34.25
2023-04-04T18:28:34.339Z,34.44
2023-04-04T18:31:02.498Z,34.12
2023-04-04T18:33:29.705Z,34.65
2023-04-04T18:35:56.757Z,34.67
2023-04-04T18:38:25.244Z,35.27
2023-04-04T18:40:53.736Z,34.83
2023-04-04T18:43:20.751Z,35.30
2023-04-04T18:45:48.058Z,35.37
2023-04-04T18:48:15.174Z,35.49
2023-04-04T18:50:42.569Z,35.65
2023-04-04T18:53:09.814Z,35.58
2023-04-04T18:55:36.935Z,35.32
2023-04-04T18:58:03.954Z,35.57
2023-04-04T19:00:31.412Z,36.51
2023-04-04T19:02:58.686Z,37.70
2023-04-04T19:05:28.994Z,38.75
2023-04-04T19:07:56.188Z,38.04
2023-04-04T19:10:23.241Z,38.25
2023-04-04T19:12:50.929Z,38.09
2023-04-04T19:15:18.659Z,37.12
2023-04-04T19:17:46.385Z,36.80
2023-04-04T19:20:14.854Z,36.99
2023-04-04T19:22:42.106Z,36.28
2023-04-04T19:25:09.312Z,36.33
2023-04-04T19:27:36.457Z,36.43
2023-04-04T19:30:12.157Z,37.11
2023-04-04T19:32:39.324Z,36.94
2023-04-04T19:35:14.119Z,36.28
2023-04-04T19:37:41.391Z,36.16
2023-04-04T19:40:08.644Z,35.85
2023-04-04T19:42:35.942Z,36.13
2023-04-04T19:45:04.330Z,37.70
2023-04-04T19:47:31.594Z,37.78
2023-04-04T19:49:58.780Z,38.90
2023-04-04T19:52:26.547Z,38.84
2023-04-04T19:54:53.768Z,38.60
2023-04-04T19:57:21.220Z,37.49
2023-04-04T20:00:09.085Z,37.55
2023-04-04T20:02:50.106Z,37.65
2023-04-04T20:05:29.852Z,36.47
2023-04-04T20:07:57.308Z,36.40
2023-04-04T20:10:37.903Z,36.83
2023-04-04T20:13:08.329Z,37.61
2023-04-04T20:15:47.780Z,38.31
2023-04-04T20:18:22.361Z,37.98
2023-04-04T20:21:11.382Z,38.01
2023-04-04T20:23:49.844Z,37.80
2023-04-04T20:26:38.509Z,38.24
2023-04-04T20:29:13.434Z,37.81
2023-04-04T20:31:51.757Z,37.92
2023-04-04T20:34:24.852Z,38.24
2023-04-04T20:36:51.996Z,38.43
2023-04-04T20:39:44.443Z,38.53
2023-04-04T20:42:32.112Z,38.64
2023-04-04T20:45:14.185Z,39.07
2023-04-04T20:47:50.017Z,39.05
2023-04-04T20:50:17.302Z,39.26
2023-04-04T20:52:48.907Z,39.08
2023-04-04T20:55:17.757Z,39.49
2023-04-04T20:57:46.997Z,39.41
2023-04-04T21:00:23.480Z,38.69
2023-04-04T21:02:50.616Z,38.55
2023-04-04T21:05:33.866Z,37.98
2023-04-04T21:08:01.221Z,39.51
2023-04-04T21:10:28.829Z,39.18
2023-04-04T21:12:59.011Z,38.54
2023-04-04T21:15:28.702Z,38.48
2023-04-04T21:18:08.037Z,38.52
2023-04-04T21:20:46.984Z,39.38
2023-04-04T21:23:26.272Z,39.55
2023-04-04T21:26:07.398Z,39.79
2023-04-04T21:28:35.044Z,40.06
2023-04-04T21:31:03.154Z,39.30
2023-04-04T21:33:30.578Z,38.97
2023-04-04T21:35:57.627Z,40.00
2023-04-04T21:38:32.338Z,39.99
2023-04-04T21:41:23.230Z,39.97
2023-04-04T21:43:51.286Z,41.19
2023-04-04T21:46:18.277Z,40.83
2023-04-04T21:48:45.384Z,41.16
2023-04-04T21:51:12.454Z,40.92
2023-04-04T21:53:39.617Z,40.42
2023-04-04T21:56:07.720Z,41.01
2023-04-04T21:58:36.035Z,40.74
2023-04-04T22:01:03.114Z,41.42
2023-04-04T22:03:30.316Z,40.95
2023-04-04T22:05:57.330Z,41.72
2023-04-04T22:08:24.442Z,42.29
2023-04-04T22:10:52.575Z,42.20
2023-04-04T22:13:22.473Z,42.44
2023-04-04T22:15:51.831Z,42.47
2023-04-04T22:18:29.914Z,41.75
2023-04-04T22:20:58.104Z,41.86
2023-04-04T22:23:25.701Z,41.69
2023-04-04T22:25:52.701Z,42.44
2023-04-04T22:28:24.926Z,41.88
2023-04-04T22:30:52.148Z,42.50
2023-04-04T22:33:19.136Z,41.82
2023-04-04T22:35:47.485Z,41.62
2023-04-04T22:38:14.623Z,41.31
2023-04-04T22:40:42.047Z,42.34
2023-04-04T22:43:10.624Z,42.13
2023-04-04T22:45:37.691Z,41.58
2023-04-04T22:48:04.951Z,41.28
2023-04-04T22:50:31.965Z,41.75
2023-04-04T22:52:58.964Z,40.94
2023-04-04T22:55:26.146Z,41.24
2023-04-04T22:57:53.198Z,42.24
2023-04-04T23:00:20.245Z,41.98
2023-04-04T23:02:49.236Z,43.05
2023-04-04T23:05:17.111Z,43.35
2023-04-04T23:07:44.845Z,42.74
2023-04-04T23:10:16.100Z,42.44
2023-04-04T23:12:43.142Z,42.44
2023-04-04T23:15:10.490Z,42.02
2023-04-04T23:17:39.290Z,42.09
2023-04-04T23:20:09.990Z,42.74
2023-04-04T23:22:38.291Z,42.61
2023-04-04T23:25:07.043Z,42.52
2023-04-04T23:27:34.577Z,42.72
2023-04-04T23:30:04.770Z,42.54
2023-04-04T23:32:32.482Z,42.66
2023-04-04T23:35:00.309Z,42.67
2023-04-04T23:37:27.386Z,42.60
2023-04-04T23:39:54.764Z,43.28
2023-04-04T23:42:21.764Z,43.96
2023-04-04T23:44:48.876Z,43.58
2023-04-04T23:47:16.299Z,42.75
2023-04-04T23:49:43.296Z,43.16
2023-04-04T23:52:10.336Z,42.12
2023-04-04T23:54:37.453Z,41.91
2023-04-04T23:57:06.488Z,42.07
2023-04-04T23:59:33.664Z,42.46
